DTTJ/DJE METAR and TAF weather

Enter ICAO airport designator
Station Type Date Time Source
DTTJ METAR 2018/04/21 21:00 UTC NOAA

DTTJ 212100Z 09007KT CAVOK 18/12 Q1018 NOSIG


Station Type Date Time Source
DTTJ Decoded METAR 2018/04/21 21:00 UTC NOAA

Djerba Mellita, Tunisia (DTTJ) 33-52N 010-46E 4M
Apr 21, 2018 - 05:00 PM EDT / 2018.04.21 2100 UTC
Wind: from the E (090 degrees) at 8 MPH (7 KT):0
Visibility: greater than 7 mile(s):0
Temperature: 64 F (18 C)
Dew Point: 53 F (12 C)
Relative Humidity: 67%
Pressure (altimeter): 30.06 in. Hg (1018 hPa)
ob: DTTJ 212100Z 09007KT CAVOK 18/12 Q1018 NOSIG
cycle: 21

Station Type Date Time Source
DTTJ TAF 2018/04/21 18:24 UTC NOAA

TAF DTTJ 211720Z 2118/2218 10010KT CAVOK
BECMG 2122/2124 16006KT 6000 NSC
TEMPO 2203/2207 3000 BR SCT020
BECMG 2207/2209 10010KT CAVOK
TEMPO 2212/2218 10020KT


Example: see airport list